createdAt,value
2018-12-26T00:01:16.777Z,7.70
2018-12-26T00:03:48.313Z,8.00
2018-12-26T00:06:19.122Z,9.13
2018-12-26T00:08:49.880Z,7.90
2018-12-26T00:11:20.840Z,6.90
2018-12-26T00:13:51.892Z,7.60
2018-12-26T00:16:22.911Z,6.73
2018-12-26T00:18:53.897Z,6.40
2018-12-26T00:21:25.415Z,6.60
2018-12-26T00:23:56.586Z,6.10
2018-12-26T00:26:27.758Z,6.53
2018-12-26T00:28:58.797Z,6.23
2018-12-26T00:31:29.780Z,6.70
2018-12-26T00:34:00.541Z,6.80
2018-12-26T00:36:31.757Z,6.83
2018-12-26T00:39:02.890Z,6.73
2018-12-26T00:41:34.165Z,7.00
2018-12-26T00:44:05.059Z,7.20
2018-12-26T00:46:36.101Z,7.00
2018-12-26T00:49:07.220Z,7.77
2018-12-26T00:51:38.660Z,6.90
2018-12-26T00:54:09.676Z,6.70
2018-12-26T00:56:40.643Z,6.47
2018-12-26T00:59:11.881Z,6.77
2018-12-26T01:01:43.593Z,7.27
2018-12-26T01:04:15.020Z,6.90
2018-12-26T01:06:46.594Z,7.67
2018-12-26T01:09:17.820Z,6.97
2018-12-26T01:11:48.573Z,6.83
2018-12-26T01:14:19.705Z,6.77
2018-12-26T01:16:50.844Z,6.87
2018-12-26T01:19:21.853Z,6.50
2018-12-26T01:21:53.164Z,6.47
2018-12-26T01:24:24.808Z,6.97
2018-12-26T01:26:55.804Z,6.57
2018-12-26T01:29:26.821Z,7.13
2018-12-26T01:31:58.645Z,7.40
2018-12-26T01:34:29.717Z,7.37
2018-12-26T01:37:00.559Z,7.90
2018-12-26T01:39:31.661Z,8.27
2018-12-26T01:42:02.962Z,8.50
2018-12-26T01:44:33.769Z,8.83
2018-12-26T01:47:04.849Z,8.37
2018-12-26T01:49:36.058Z,8.60
2018-12-26T01:52:07.068Z,8.97
2018-12-26T01:54:37.934Z,9.37
2018-12-26T01:57:08.775Z,10.33
2018-12-26T01:59:40.100Z,11.87
2018-12-26T02:02:11.418Z,13.70
2018-12-26T02:04:42.207Z,12.17
2018-12-26T02:07:13.534Z,13.20
2018-12-26T02:09:44.651Z,12.20
2018-12-26T02:12:15.476Z,12.07
2018-12-26T02:14:46.597Z,14.87
2018-12-26T02:17:17.871Z,16.10
2018-12-26T02:19:48.903Z,14.77
2018-12-26T02:22:19.914Z,15.10
2018-12-26T02:24:50.998Z,15.63
2018-12-26T02:27:22.074Z,17.03
2018-12-26T02:29:53.228Z,16.90
2018-12-26T02:32:24.385Z,16.63
2018-12-26T02:34:55.477Z,16.00
2018-12-26T02:37:46.954Z,15.87
2018-12-26T02:40:18.635Z,15.97
2018-12-26T02:42:49.416Z,15.87
2018-12-26T02:45:20.698Z,15.30
2018-12-26T02:47:52.078Z,15.93
2018-12-26T02:50:23.114Z,16.43
2018-12-26T02:55:44.528Z,18.37
2018-12-26T02:58:15.591Z,20.73
2018-12-26T03:00:46.651Z,20.77
2018-12-26T03:09:58.310Z,18.10
2018-12-26T03:15:31.530Z,20.10
2018-12-26T03:18:02.903Z,20.87
2018-12-26T03:20:34.256Z,20.80
2018-12-26T03:23:05.274Z,21.47
2018-12-26T03:25:36.305Z,20.90
2018-12-26T03:28:07.398Z,20.73
2018-12-26T03:30:38.876Z,20.80
2018-12-26T03:33:10.133Z,21.70
2018-12-26T03:35:41.675Z,24.10
2018-12-26T03:38:12.510Z,21.57
2018-12-26T03:40:43.681Z,24.30
2018-12-26T03:43:15.039Z,22.37
2018-12-26T03:45:46.215Z,23.03
2018-12-26T03:48:18.072Z,22.00
2018-12-26T03:50:49.021Z,20.47
2018-12-26T03:53:20.720Z,22.67
2018-12-26T03:55:51.687Z,21.93
2018-12-26T03:58:22.857Z,22.50
2018-12-26T04:00:54.331Z,22.97
2018-12-26T04:03:25.201Z,27.07
2018-12-26T04:05:56.227Z,23.67
2018-12-26T04:08:27.352Z,24.40
2018-12-26T04:10:58.219Z,22.20
2018-12-26T04:13:29.705Z,21.33
2018-12-26T04:16:00.878Z,21.50
2018-12-26T04:18:32.257Z,35.23
2018-12-26T04:21:03.604Z,30.37
2018-12-26T04:23:34.693Z,22.53
2018-12-26T04:26:05.830Z,23.97
2018-12-26T04:28:37.000Z,22.83
2018-12-26T04:31:07.802Z,22.00
2018-12-26T04:33:38.588Z,24.13
2018-12-26T04:36:09.635Z,21.67
2018-12-26T04:38:40.694Z,20.83
2018-12-26T04:41:11.725Z,20.80
2018-12-26T04:43:42.600Z,21.50
2018-12-26T04:46:13.686Z,23.23
2018-12-26T04:48:44.736Z,22.60
2018-12-26T04:51:15.738Z,21.97
2018-12-26T04:53:47.097Z,21.03
2018-12-26T04:56:18.414Z,21.13
2018-12-26T04:58:49.483Z,21.53
2018-12-26T05:01:20.826Z,22.33
2018-12-26T05:03:51.918Z,23.27
2018-12-26T05:06:22.991Z,22.27
2018-12-26T05:08:54.297Z,22.87
2018-12-26T05:11:25.298Z,23.13
2018-12-26T05:13:56.459Z,24.17
2018-12-26T05:16:27.534Z,24.03
2018-12-26T05:18:58.705Z,25.17
2018-12-26T05:21:31.027Z,25.87
2018-12-26T05:24:05.345Z,23.97
2018-12-26T05:26:36.460Z,24.60
2018-12-26T05:29:07.500Z,25.30
2018-12-26T05:31:38.284Z,25.37
2018-12-26T05:34:09.723Z,25.30
2018-12-26T05:36:40.811Z,25.97
2018-12-26T05:39:11.856Z,24.53
2018-12-26T05:41:42.649Z,25.27
2018-12-26T05:44:13.680Z,24.63
2018-12-26T05:46:44.487Z,24.73
2018-12-26T05:49:16.050Z,24.87
2018-12-26T05:51:47.423Z,25.40
2018-12-26T05:54:18.498Z,25.40
2018-12-26T05:56:49.519Z,24.40
2018-12-26T05:59:21.152Z,25.87
2018-12-26T06:01:52.420Z,25.57
2018-12-26T06:04:23.799Z,25.80
2018-12-26T06:06:55.058Z,25.13
2018-12-26T06:09:26.409Z,24.70
2018-12-26T06:11:57.735Z,23.90
2018-12-26T06:14:28.755Z,23.90
2018-12-26T06:16:59.835Z,23.50
2018-12-26T06:19:31.150Z,21.90
2018-12-26T06:22:02.769Z,22.13
2018-12-26T06:24:33.885Z,22.83
2018-12-26T06:27:05.033Z,22.50
2018-12-26T06:29:36.434Z,21.17
2018-12-26T06:32:07.542Z,21.73
2018-12-26T06:34:39.430Z,22.13
2018-12-26T06:37:10.215Z,22.80
2018-12-26T06:39:41.286Z,22.83
2018-12-26T06:42:12.462Z,21.77
2018-12-26T06:44:43.507Z,21.67
2018-12-26T06:47:15.063Z,21.17
2018-12-26T06:49:46.767Z,21.30
2018-12-26T06:52:17.931Z,21.53
2018-12-26T06:54:49.228Z,21.17
2018-12-26T06:57:20.526Z,21.37
2018-12-26T06:59:51.955Z,20.23
2018-12-26T07:02:23.014Z,20.67
2018-12-26T07:04:54.121Z,21.17
2018-12-26T07:07:25.214Z,21.50
2018-12-26T07:09:56.015Z,20.33
2018-12-26T07:12:27.151Z,21.70
2018-12-26T07:14:58.278Z,21.20
2018-12-26T07:17:29.303Z,21.63
2018-12-26T07:20:00.370Z,20.57
2018-12-26T07:22:31.756Z,20.33
2018-12-26T07:25:03.016Z,19.83
2018-12-26T07:27:34.694Z,19.97
2018-12-26T07:30:05.877Z,19.30
2018-12-26T07:32:36.890Z,20.47
2018-12-26T07:35:08.072Z,21.00
2018-12-26T07:37:39.115Z,17.23
2018-12-26T07:40:10.135Z,17.73
2018-12-26T07:42:40.926Z,19.13
2018-12-26T07:45:11.776Z,20.60
2018-12-26T07:47:43.397Z,18.40
2018-12-26T07:50:14.993Z,19.27
2018-12-26T07:52:46.320Z,18.77
2018-12-26T07:55:17.717Z,19.40
2018-12-26T07:57:49.235Z,20.27
2018-12-26T08:00:20.864Z,19.97
2018-12-26T08:02:51.707Z,20.40
2018-12-26T08:05:23.349Z,18.93
2018-12-26T08:07:54.742Z,19.70
2018-12-26T08:10:25.534Z,20.83
2018-12-26T08:12:56.610Z,19.93
2018-12-26T08:15:27.524Z,20.37
2018-12-26T08:17:58.971Z,20.13
2018-12-26T08:20:30.183Z,21.23
2018-12-26T08:23:01.865Z,20.67
2018-12-26T08:25:33.218Z,20.13
2018-12-26T08:28:04.368Z,20.97
2018-12-26T08:30:35.619Z,20.23
2018-12-26T08:33:06.717Z,20.07
2018-12-26T08:35:38.384Z,21.63
2018-12-26T08:38:09.514Z,21.50
2018-12-26T08:40:40.572Z,22.33
2018-12-26T08:43:11.590Z,21.37
2018-12-26T08:45:42.486Z,24.50
2018-12-26T08:48:13.647Z,21.30
2018-12-26T08:50:44.930Z,21.80
2018-12-26T08:53:16.370Z,20.80
2018-12-26T08:55:47.907Z,21.13
2018-12-26T08:58:19.363Z,21.27
2018-12-26T09:00:50.894Z,21.07
2018-12-26T09:03:21.979Z,20.67
2018-12-26T09:05:53.530Z,20.57
2018-12-26T09:09:01.555Z,22.30
2018-12-26T09:11:52.409Z,20.47
2018-12-26T09:14:23.454Z,21.80
2018-12-26T09:16:54.878Z,21.70
2018-12-26T09:19:25.768Z,21.10
2018-12-26T09:21:56.781Z,22.77
2018-12-26T09:24:28.077Z,23.20
2018-12-26T09:26:59.276Z,23.07
2018-12-26T09:29:30.682Z,22.67
2018-12-26T09:32:01.566Z,21.47
2018-12-26T09:34:32.459Z,21.87
2018-12-26T09:37:03.809Z,22.37
2018-12-26T09:39:34.667Z,21.27
2018-12-26T09:42:06.049Z,21.97
2018-12-26T09:44:37.679Z,22.57
2018-12-26T09:47:09.080Z,20.40
2018-12-26T09:49:40.398Z,21.83
2018-12-26T09:52:11.428Z,21.23
2018-12-26T09:54:42.497Z,23.10
2018-12-26T09:57:13.622Z,20.80
2018-12-26T09:59:44.641Z,22.77
2018-12-26T10:02:15.650Z,23.47
2018-12-26T10:04:47.140Z,22.90
2018-12-26T10:07:18.144Z,23.33
2018-12-26T10:09:49.790Z,22.63
2018-12-26T10:12:21.366Z,23.13
2018-12-26T10:14:52.543Z,23.13
2018-12-26T10:17:23.396Z,22.30
2018-12-26T10:19:54.193Z,23.03
2018-12-26T10:22:25.480Z,23.67
2018-12-26T10:24:56.327Z,23.73
2018-12-26T10:27:27.611Z,23.93
2018-12-26T10:29:58.712Z,23.47
2018-12-26T10:32:29.814Z,23.30
2018-12-26T10:35:00.924Z,23.83
2018-12-26T10:37:32.066Z,22.87
2018-12-26T10:40:03.443Z,23.77
2018-12-26T10:42:34.771Z,25.17
2018-12-26T10:45:06.617Z,25.33
2018-12-26T10:47:37.550Z,24.10
2018-12-26T10:50:10.438Z,32.57
2018-12-26T10:52:41.560Z,26.63
2018-12-26T10:55:12.601Z,27.10
2018-12-26T10:57:43.902Z,26.03
2018-12-26T11:00:15.075Z,28.47
2018-12-26T11:02:46.092Z,28.97
2018-12-26T11:05:16.871Z,28.03
2018-12-26T11:07:48.322Z,23.87
2018-12-26T11:10:19.365Z,25.53
2018-12-26T11:12:50.268Z,25.13
2018-12-26T11:15:23.091Z,32.90
2018-12-26T11:18:29.490Z,30.10
2018-12-26T11:21:19.747Z,30.27
2018-12-26T11:27:27.372Z,23.43
2018-12-26T11:30:00.170Z,23.40
2018-12-26T11:32:44.747Z,25.70
2018-12-26T11:35:52.726Z,31.37
2018-12-26T11:41:15.102Z,25.33
2018-12-26T11:43:47.789Z,31.53
2018-12-26T11:49:32.652Z,25.57
2018-12-26T11:52:07.141Z,27.00
2018-12-26T11:54:38.221Z,26.60
2018-12-26T11:57:09.011Z,27.60
2018-12-26T11:59:40.087Z,30.97
2018-12-26T12:02:11.439Z,28.97
2018-12-26T12:04:42.461Z,27.60
2018-12-26T12:10:34.253Z,24.47
2018-12-26T12:16:24.717Z,25.03
2018-12-26T12:22:28.858Z,24.93
2018-12-26T12:43:20.953Z,24.53
2018-12-26T12:45:53.640Z,24.83
2018-12-26T13:01:13.967Z,26.30
2018-12-26T13:06:45.307Z,25.03
2018-12-26T13:09:16.107Z,28.10
2018-12-26T13:15:43.107Z,27.10
2018-12-26T13:18:35.714Z,25.40
2018-12-26T13:21:06.502Z,26.20
2018-12-26T13:23:37.510Z,26.27
2018-12-26T13:26:08.535Z,28.53
2018-12-26T13:28:39.686Z,26.97
2018-12-26T13:31:10.960Z,25.90
2018-12-26T13:33:41.939Z,25.97
2018-12-26T13:36:13.305Z,26.63
2018-12-26T13:38:44.366Z,26.50
2018-12-26T13:41:15.230Z,26.07
2018-12-26T13:43:46.345Z,27.63
2018-12-26T13:46:17.662Z,27.53
2018-12-26T13:48:48.846Z,29.03
2018-12-26T13:51:20.309Z,28.17
2018-12-26T13:53:51.332Z,29.20
2018-12-26T13:56:22.704Z,29.33
2018-12-26T13:58:53.483Z,29.63
2018-12-26T14:01:24.646Z,28.73
2018-12-26T14:03:55.661Z,28.10
2018-12-26T14:06:26.737Z,29.77
2018-12-26T14:08:57.782Z,30.03
2018-12-26T14:11:29.612Z,29.20
2018-12-26T14:14:00.934Z,33.13
2018-12-26T14:16:32.106Z,29.17
2018-12-26T14:19:03.321Z,27.67
2018-12-26T14:21:34.346Z,26.13
2018-12-26T14:24:05.486Z,25.23
2018-12-26T14:26:36.902Z,25.63
2018-12-26T14:29:08.032Z,30.87
2018-12-26T14:31:39.522Z,30.23
2018-12-26T14:34:10.849Z,33.43
2018-12-26T14:36:42.287Z,31.10
2018-12-26T14:39:13.057Z,29.13
2018-12-26T14:41:44.672Z,31.03
2018-12-26T14:44:15.764Z,28.77
2018-12-26T14:46:47.201Z,31.67
2018-12-26T14:49:18.148Z,51.77
2018-12-26T14:51:50.431Z,42.63
2018-12-26T14:54:21.692Z,30.93
2018-12-26T14:56:52.819Z,30.20
2018-12-26T14:59:24.197Z,29.77
2018-12-26T15:01:55.762Z,30.87
2018-12-26T15:04:27.056Z,35.47
2018-12-26T15:06:58.397Z,29.93
2018-12-26T15:09:29.536Z,31.63
2018-12-26T15:12:00.332Z,32.13
2018-12-26T15:14:31.595Z,50.03
2018-12-26T15:17:02.729Z,32.57
2018-12-26T15:19:34.085Z,29.67
2018-12-26T15:22:05.393Z,30.23
2018-12-26T15:24:36.718Z,33.63
2018-12-26T15:27:08.491Z,31.67
2018-12-26T15:29:39.788Z,32.27
2018-12-26T15:32:11.922Z,30.67
2018-12-26T15:34:43.901Z,32.87
2018-12-26T15:37:15.506Z,29.67
2018-12-26T15:39:46.919Z,28.40
2018-12-26T15:42:18.231Z,29.93
2018-12-26T15:44:49.086Z,32.33
2018-12-26T15:47:20.646Z,29.87
2018-12-26T15:49:51.925Z,28.73
2018-12-26T15:52:23.892Z,27.97
2018-12-26T15:54:54.671Z,30.43
2018-12-26T15:57:25.699Z,30.03
2018-12-26T15:59:57.277Z,29.40
2018-12-26T16:02:28.678Z,28.40
2018-12-26T16:04:59.533Z,29.40
2018-12-26T16:07:31.000Z,41.30
2018-12-26T16:10:02.065Z,31.27
2018-12-26T16:12:33.539Z,33.30
2018-12-26T16:15:05.328Z,32.40
2018-12-26T16:17:36.702Z,33.30
2018-12-26T16:20:09.864Z,46.10
2018-12-26T16:25:54.712Z,32.13
2018-12-26T16:28:26.068Z,31.87
2018-12-26T16:31:20.493Z,30.33
2018-12-26T16:34:03.490Z,31.67
2018-12-26T16:39:36.834Z,29.80
2018-12-26T16:42:27.803Z,28.63
2018-12-26T16:44:59.347Z,30.50
2018-12-26T16:47:30.941Z,29.20
2018-12-26T16:50:02.082Z,30.00
2018-12-26T16:52:33.631Z,29.07
2018-12-26T16:55:05.472Z,29.03
2018-12-26T16:57:36.789Z,30.73
2018-12-26T17:00:08.319Z,30.50
2018-12-26T17:02:39.490Z,29.47
2018-12-26T17:08:24.641Z,28.27
2018-12-26T17:10:57.787Z,28.57
2018-12-26T17:13:28.862Z,29.57
2018-12-26T17:16:00.164Z,28.73
2018-12-26T17:18:31.030Z,30.13
2018-12-26T17:21:02.133Z,29.13
2018-12-26T17:23:33.393Z,29.43
2018-12-26T17:26:04.406Z,29.60
2018-12-26T17:28:35.659Z,30.23
2018-12-26T17:31:49.669Z,30.77
2018-12-26T17:34:20.853Z,28.37
2018-12-26T17:40:06.519Z,27.47
2018-12-26T17:42:58.437Z,28.60
2018-12-26T17:45:29.820Z,27.37
2018-12-26T17:48:02.575Z,27.37
2018-12-26T17:50:54.508Z,29.57
2018-12-26T17:54:19.972Z,26.17
2018-12-26T18:04:07.302Z,27.60
2018-12-26T18:06:58.488Z,27.73
2018-12-26T18:09:29.655Z,28.70
2018-12-26T18:19:20.298Z,29.30
2018-12-26T18:21:51.362Z,29.23
2018-12-26T18:24:22.804Z,28.93
2018-12-26T18:27:13.208Z,28.10
2018-12-26T18:33:33.770Z,29.53
2018-12-26T18:36:59.971Z,29.60
2018-12-26T18:39:33.048Z,30.80
2018-12-26T18:42:04.729Z,28.03
2018-12-26T18:44:35.538Z,28.63
2018-12-26T18:47:06.666Z,28.30
2018-12-26T18:49:37.784Z,28.13
2018-12-26T18:52:08.583Z,29.10
2018-12-26T18:54:39.974Z,29.00
2018-12-26T18:57:11.030Z,29.17
2018-12-26T18:59:42.935Z,30.27
2018-12-26T19:02:14.337Z,31.87
2018-12-26T19:04:46.386Z,28.53
2018-12-26T19:07:17.685Z,30.60
2018-12-26T19:09:48.910Z,29.17
2018-12-26T19:12:20.306Z,27.47
2018-12-26T19:14:51.346Z,28.67
2018-12-26T19:17:22.603Z,25.17
2018-12-26T19:19:53.789Z,27.60
2018-12-26T19:22:24.821Z,27.63
2018-12-26T19:24:55.979Z,25.03
2018-12-26T19:27:27.098Z,26.77
2018-12-26T19:29:59.495Z,48.20
2018-12-26T19:32:31.727Z,34.90
2018-12-26T19:35:03.482Z,34.83
2018-12-26T19:37:34.794Z,32.17
2018-12-26T19:43:54.429Z,29.50
2018-12-26T19:46:37.394Z,27.77
2018-12-26T19:49:28.064Z,25.90
2018-12-26T19:51:58.851Z,26.50
2018-12-26T19:54:29.940Z,27.03
2018-12-26T19:57:01.455Z,26.57
2018-12-26T19:59:32.727Z,26.70
2018-12-26T20:02:03.767Z,26.47
2018-12-26T20:04:35.335Z,25.13
2018-12-26T20:07:06.591Z,26.07
2018-12-26T20:09:37.724Z,26.63
2018-12-26T20:12:10.211Z,26.60
2018-12-26T20:14:41.546Z,26.40
2018-12-26T20:17:12.999Z,27.63
2018-12-26T20:19:43.807Z,28.23
2018-12-26T20:22:14.750Z,27.47
2018-12-26T20:24:46.082Z,27.97
2018-12-26T20:27:17.482Z,26.97
2018-12-26T20:29:49.207Z,27.33
2018-12-26T20:32:20.711Z,28.30
2018-12-26T20:34:51.827Z,28.23
2018-12-26T20:37:23.245Z,27.43
2018-12-26T20:39:54.679Z,26.50
2018-12-26T20:42:26.259Z,27.07
2018-12-26T20:44:57.390Z,27.17
2018-12-26T20:47:29.904Z,25.80
2018-12-26T20:50:01.386Z,26.87
2018-12-26T20:52:32.558Z,26.53
2018-12-26T20:55:03.623Z,26.33
2018-12-26T20:57:38.263Z,25.67
2018-12-26T21:00:10.730Z,25.17
2018-12-26T21:02:42.020Z,28.20
2018-12-26T21:05:12.881Z,28.33
2018-12-26T21:07:44.870Z,27.60
2018-12-26T21:10:16.038Z,27.13
2018-12-26T21:12:47.156Z,27.67
2018-12-26T21:15:18.213Z,26.87
2018-12-26T21:17:49.272Z,28.70
2018-12-26T21:20:41.707Z,29.17
2018-12-26T21:23:12.747Z,30.20
2018-12-26T21:25:43.974Z,30.60
2018-12-26T21:28:15.563Z,32.83
2018-12-26T21:30:46.482Z,33.33
2018-12-26T21:33:17.993Z,32.13
2018-12-26T21:35:49.183Z,32.53
2018-12-26T21:38:20.149Z,30.87
2018-12-26T21:40:51.640Z,31.07
2018-12-26T21:43:22.961Z,31.27
2018-12-26T21:45:54.217Z,30.80
2018-12-26T21:48:25.286Z,33.73
2018-12-26T21:50:56.467Z,37.60
2018-12-26T21:53:27.244Z,37.57
2018-12-26T21:55:58.312Z,38.83
2018-12-26T21:58:29.833Z,38.57
2018-12-26T22:01:00.954Z,39.93
2018-12-26T22:03:32.334Z,38.13
2018-12-26T22:06:03.423Z,41.27
2018-12-26T22:08:34.763Z,41.33
2018-12-26T22:11:05.601Z,37.43
2018-12-26T22:13:36.773Z,37.43
2018-12-26T22:16:08.403Z,40.10
2018-12-26T22:18:39.954Z,38.43
2018-12-26T22:21:11.428Z,36.33
2018-12-26T22:23:42.444Z,36.80
2018-12-26T22:26:13.616Z,36.60
2018-12-26T22:28:45.144Z,35.33
2018-12-26T22:31:16.502Z,35.30
2018-12-26T22:33:47.937Z,36.60
2018-12-26T22:36:19.256Z,37.27
2018-12-26T22:38:50.527Z,36.70
2018-12-26T22:41:22.683Z,36.13
2018-12-26T22:43:54.276Z,38.90
2018-12-26T22:46:25.426Z,38.50
2018-12-26T22:48:56.567Z,38.23
2018-12-26T22:51:27.968Z,37.37
2018-12-26T22:53:59.306Z,39.87
2018-12-26T22:56:30.683Z,36.67
2018-12-26T22:59:02.456Z,36.43
2018-12-26T23:01:33.911Z,35.77
2018-12-26T23:04:04.992Z,33.30
2018-12-26T23:06:36.131Z,38.13
2018-12-26T23:09:07.915Z,33.10
2018-12-26T23:11:39.374Z,34.30
2018-12-26T23:14:10.701Z,28.90
2018-12-26T23:16:41.888Z,27.47
2018-12-26T23:19:12.924Z,29.77
2018-12-26T23:21:44.014Z,32.03
2018-12-26T23:24:15.271Z,29.73
2018-12-26T23:26:46.351Z,28.77
2018-12-26T23:29:17.951Z,30.93
2018-12-26T23:31:49.287Z,30.90
2018-12-26T23:34:21.546Z,29.33
2018-12-26T23:36:52.920Z,32.53
2018-12-26T23:39:23.998Z,33.77
2018-12-26T23:41:55.220Z,35.53
2018-12-26T23:44:26.500Z,37.57
2018-12-26T23:46:57.872Z,39.77
2018-12-26T23:49:28.727Z,36.37
2018-12-26T23:52:00.014Z,36.43
2018-12-26T23:54:30.869Z,36.23
2018-12-26T23:57:01.837Z,39.07
2018-12-26T23:59:33.342Z,40.70
